createdAt,value
2023-01-05T00:00:11.887Z,90.31
2023-01-05T00:01:44.157Z,90.32
2023-01-05T00:03:16.371Z,90.12
2023-01-05T00:04:48.487Z,90.34
2023-01-05T00:06:20.643Z,90.02
2023-01-05T00:07:53.197Z,90.02
2023-01-05T00:09:25.162Z,89.96
2023-01-05T00:11:15.657Z,90.19
2023-01-05T00:13:06.089Z,90.00
2023-01-05T00:14:56.611Z,90.02
2023-01-05T00:16:47.511Z,90.07
2023-01-05T00:18:38.029Z,90.24
2023-01-05T00:20:36.876Z,90.08
2023-01-05T00:22:32.368Z,89.96
2023-01-05T00:25:41.506Z,90.13
2023-01-05T00:27:13.433Z,90.18
2023-01-05T00:28:45.402Z,90.03
2023-01-05T00:30:20.058Z,90.23
2023-01-05T00:31:52.183Z,90.13
2023-01-05T00:33:24.245Z,90.17
2023-01-05T00:34:57.594Z,90.22
2023-01-05T00:36:29.581Z,90.45
2023-01-05T00:38:01.902Z,90.26
2023-01-05T00:39:34.129Z,90.27
2023-01-05T00:41:06.106Z,90.26
2023-01-05T00:42:38.424Z,90.29
2023-01-05T00:44:10.385Z,90.22
2023-01-05T00:45:42.501Z,90.12
2023-01-05T00:47:15.120Z,90.48
2023-01-05T00:48:47.062Z,90.35
2023-01-05T00:50:19.838Z,90.19
2023-01-05T00:51:51.899Z,90.27
2023-01-05T00:53:23.826Z,90.08
2023-01-05T00:54:55.861Z,90.42
2023-01-05T00:56:27.889Z,90.27
2023-01-05T00:57:59.943Z,90.25
2023-01-05T00:59:31.900Z,90.38
2023-01-05T01:01:10.050Z,90.48
2023-01-05T01:02:42.233Z,90.34
2023-01-05T01:04:14.828Z,90.41
2023-01-05T01:05:46.849Z,90.23
2023-01-05T01:07:19.764Z,90.23
2023-01-05T01:08:51.733Z,90.42
2023-01-05T01:10:25.722Z,89.99
2023-01-05T01:11:57.789Z,89.96
2023-01-05T01:13:29.745Z,90.15
2023-01-05T01:15:01.918Z,90.16
2023-01-05T01:16:34.891Z,90.04
2023-01-05T01:18:06.874Z,90.10
2023-01-05T01:19:39.499Z,90.12
2023-01-05T01:21:11.584Z,90.03
2023-01-05T01:24:26.199Z,90.01
2023-01-05T01:25:58.196Z,89.93
2023-01-05T01:27:31.441Z,89.54
2023-01-05T01:29:03.490Z,89.53
2023-01-05T01:30:38.898Z,89.36
2023-01-05T01:32:11.022Z,89.09
2023-01-05T01:33:43.057Z,89.39
2023-01-05T01:35:15.054Z,89.01
2023-01-05T01:36:47.602Z,88.89
2023-01-05T01:38:19.601Z,88.97
2023-01-05T01:39:51.640Z,88.97
2023-01-05T01:41:23.667Z,88.88
2023-01-05T01:42:55.818Z,88.68
2023-01-05T01:44:49.563Z,88.50
2023-01-05T01:46:22.806Z,88.48
2023-01-05T01:47:59.627Z,88.33
2023-01-05T01:49:31.596Z,88.11
2023-01-05T01:51:08.388Z,88.13
2023-01-05T01:52:41.107Z,88.01
2023-01-05T01:54:16.634Z,87.93
2023-01-05T01:55:48.679Z,87.32
2023-01-05T01:57:21.678Z,87.48
2023-01-05T01:58:54.040Z,87.36
2023-01-05T02:00:26.133Z,87.40
2023-01-05T02:02:01.233Z,87.25
2023-01-05T02:03:33.476Z,86.57
2023-01-05T02:05:09.752Z,86.18
2023-01-05T02:06:41.812Z,86.52
2023-01-05T02:08:16.511Z,86.50
2023-01-05T02:09:48.572Z,86.14
2023-01-05T02:11:32.821Z,86.24
2023-01-05T02:13:10.527Z,86.47
2023-01-05T02:14:59.134Z,86.36
2023-01-05T02:16:53.021Z,86.43
2023-01-05T02:18:34.681Z,86.87
2023-01-05T02:20:50.619Z,86.79
2023-01-05T02:22:41.271Z,86.57
2023-01-05T02:24:30.901Z,86.55
2023-01-05T02:26:17.549Z,86.39
2023-01-05T02:28:20.571Z,86.79
2023-01-05T02:29:55.735Z,86.92
2023-01-05T02:31:35.133Z,86.80
2023-01-05T02:33:16.286Z,86.90
2023-01-05T02:35:20.613Z,86.78
2023-01-05T02:37:01.218Z,86.63
2023-01-05T02:38:36.125Z,86.44
2023-01-05T02:40:14.991Z,86.36
2023-01-05T02:41:56.774Z,86.36
2023-01-05T02:43:29.301Z,86.11
2023-01-05T02:45:03.106Z,85.97
2023-01-05T02:46:35.222Z,86.20
2023-01-05T02:48:07.291Z,86.27
2023-01-05T02:49:40.742Z,86.63
2023-01-05T02:53:08.995Z,86.84
2023-01-05T02:54:48.158Z,86.94
2023-01-05T02:56:25.571Z,86.56
2023-01-05T02:58:05.689Z,86.80
2023-01-05T02:59:45.210Z,86.52
2023-01-05T03:01:21.789Z,86.88
2023-01-05T03:02:57.090Z,86.76
2023-01-05T03:04:33.621Z,86.54
2023-01-05T03:06:27.048Z,86.31
2023-01-05T03:08:07.163Z,86.44
2023-01-05T03:09:40.652Z,86.30
2023-01-05T03:11:31.484Z,86.13
2023-01-05T03:13:25.592Z,85.60
2023-01-05T03:15:00.960Z,85.78
2023-01-05T03:16:36.326Z,85.92
2023-01-05T03:18:11.131Z,86.08
2023-01-05T03:19:44.768Z,86.28
2023-01-05T03:21:16.603Z,86.09
2023-01-05T03:23:07.604Z,86.35
2023-01-05T03:24:58.984Z,86.59
2023-01-05T03:26:49.635Z,86.73
2023-01-05T03:28:46.623Z,86.74
2023-01-05T03:30:37.505Z,86.36
2023-01-05T03:32:40.448Z,85.91
2023-01-05T03:34:36.690Z,85.80
2023-01-05T03:36:09.430Z,85.78
2023-01-05T03:37:48.136Z,86.03
2023-01-05T03:39:20.960Z,86.23
2023-01-05T03:40:54.571Z,86.13
2023-01-05T03:42:26.882Z,85.99
2023-01-05T03:43:58.921Z,86.22
2023-01-05T03:45:45.591Z,85.92
2023-01-05T03:47:17.658Z,86.21
2023-01-05T03:48:50.147Z,86.47
2023-01-05T03:50:22.365Z,86.48
2023-01-05T03:51:54.423Z,86.64
2023-01-05T03:53:26.542Z,86.91
2023-01-05T03:54:58.531Z,86.75
2023-01-05T03:56:30.583Z,87.18
2023-01-05T03:58:02.543Z,87.33
2023-01-05T03:59:34.614Z,87.25
2023-01-05T04:01:07.272Z,87.22
2023-01-05T04:02:39.468Z,87.28
2023-01-05T04:04:11.499Z,87.04
2023-01-05T04:05:43.465Z,87.19
2023-01-05T04:07:15.450Z,86.96
2023-01-05T04:08:47.503Z,86.93
2023-01-05T04:10:19.431Z,86.86
2023-01-05T04:11:51.379Z,86.97
2023-01-05T04:13:23.474Z,86.96
2023-01-05T04:14:55.515Z,86.57
2023-01-05T04:16:28.997Z,86.57
2023-01-05T04:18:01.035Z,86.49
2023-01-05T04:19:33.045Z,86.50
2023-01-05T04:21:05.849Z,86.41
2023-01-05T04:22:37.827Z,86.41
2023-01-05T04:24:11.227Z,86.30
2023-01-05T04:25:43.215Z,86.41
2023-01-05T04:27:15.196Z,86.59
2023-01-05T04:28:47.144Z,86.96
2023-01-05T04:30:19.317Z,86.76
2023-01-05T04:31:51.363Z,86.91
2023-01-05T04:33:24.606Z,86.70
2023-01-05T04:34:56.678Z,86.80
2023-01-05T04:36:28.689Z,86.82
2023-01-05T04:38:00.767Z,87.08
2023-01-05T04:39:32.834Z,87.26
2023-01-05T04:41:05.133Z,87.35
2023-01-05T04:42:37.132Z,87.58
2023-01-05T04:44:09.347Z,87.70
2023-01-05T04:45:41.554Z,87.92
2023-01-05T04:47:13.617Z,87.71
2023-01-05T04:48:45.556Z,87.80
2023-01-05T04:50:18.506Z,87.96
2023-01-05T04:51:50.621Z,88.17
2023-01-05T04:53:23.656Z,88.16
2023-01-05T04:54:55.711Z,88.38
2023-01-05T04:56:27.758Z,88.64
2023-01-05T04:57:59.894Z,88.62
2023-01-05T04:59:31.933Z,88.57
2023-01-05T05:01:04.102Z,88.69
2023-01-05T05:02:36.469Z,88.60
2023-01-05T05:04:08.545Z,89.24
2023-01-05T05:05:40.514Z,89.33
2023-01-05T05:07:12.543Z,89.30
2023-01-05T05:08:47.031Z,89.13
2023-01-05T05:10:19.433Z,88.97
2023-01-05T05:11:51.443Z,89.02
2023-01-05T05:13:23.676Z,88.95
2023-01-05T05:14:55.721Z,88.89
2023-01-05T05:16:27.800Z,88.34
2023-01-05T05:18:04.171Z,88.01
2023-01-05T05:19:39.108Z,87.65
2023-01-05T05:21:11.126Z,87.61
2023-01-05T05:22:43.215Z,87.97
2023-01-05T05:24:15.196Z,88.03
2023-01-05T05:25:50.995Z,87.73
2023-01-05T05:27:23.415Z,87.93
2023-01-05T05:28:55.472Z,88.07
2023-01-05T05:30:27.552Z,87.96
2023-01-05T05:31:59.726Z,88.06
2023-01-05T05:33:31.728Z,88.26
2023-01-05T05:36:44.617Z,88.40
2023-01-05T05:38:16.603Z,88.21
2023-01-05T05:39:48.763Z,88.56
2023-01-05T05:41:20.939Z,88.47
2023-01-05T05:42:52.976Z,88.49
2023-01-05T05:44:24.982Z,88.66
2023-01-05T05:45:56.959Z,88.44
2023-01-05T05:47:29.025Z,88.21
2023-01-05T05:49:01.238Z,88.28
2023-01-05T05:50:33.763Z,88.25
2023-01-05T05:52:05.879Z,88.09
2023-01-05T05:53:37.914Z,87.98
2023-01-05T05:55:10.386Z,88.37
2023-01-05T05:56:42.417Z,88.34
2023-01-05T05:58:14.451Z,88.31
2023-01-05T05:59:46.436Z,88.07
2023-01-05T06:01:18.617Z,88.03
2023-01-05T06:02:50.761Z,87.89
2023-01-05T06:04:22.891Z,88.27
2023-01-05T06:05:55.023Z,88.34
2023-01-05T06:07:27.082Z,88.10
2023-01-05T06:08:59.155Z,88.42
2023-01-05T06:10:33.983Z,88.23
2023-01-05T06:12:06.283Z,88.13
2023-01-05T06:13:38.361Z,88.39
2023-01-05T06:15:11.169Z,88.50
2023-01-05T06:16:43.173Z,88.44
2023-01-05T06:18:16.167Z,88.55
2023-01-05T06:19:48.219Z,88.66
2023-01-05T06:21:21.753Z,88.62
2023-01-05T06:22:53.523Z,88.58
2023-01-05T06:24:28.728Z,88.41
2023-01-05T06:26:00.804Z,88.45
2023-01-05T06:27:33.233Z,88.49
2023-01-05T06:29:05.259Z,88.32
2023-01-05T06:30:37.401Z,88.58
2023-01-05T06:32:09.446Z,88.31
2023-01-05T06:33:41.558Z,88.46
2023-01-05T06:35:13.753Z,88.78
2023-01-05T06:36:45.910Z,88.63
2023-01-05T06:38:18.943Z,88.49
2023-01-05T06:39:51.200Z,88.65
2023-01-05T06:41:23.187Z,88.65
2023-01-05T06:42:55.231Z,88.75
2023-01-05T06:44:27.195Z,89.02
2023-01-05T06:45:59.419Z,89.18
2023-01-05T06:47:31.588Z,89.12
2023-01-05T06:49:03.587Z,89.29
2023-01-05T06:50:35.658Z,89.36
2023-01-05T06:52:10.888Z,89.58
2023-01-05T06:53:47.872Z,89.64
2023-01-05T06:55:20.112Z,89.65
2023-01-05T06:56:52.235Z,89.85
2023-01-05T06:58:24.367Z,89.73
2023-01-05T06:59:56.507Z,89.87
2023-01-05T07:01:28.669Z,90.16
2023-01-05T07:03:00.843Z,90.24
2023-01-05T07:04:32.828Z,90.08
2023-01-05T07:06:06.749Z,90.26
2023-01-05T07:07:42.141Z,90.37
2023-01-05T07:09:14.169Z,90.74
2023-01-05T07:10:46.300Z,90.65
2023-01-05T07:12:18.602Z,90.83
2023-01-05T07:13:51.238Z,90.96
2023-01-05T07:15:23.378Z,91.25
2023-01-05T07:16:55.362Z,91.45
2023-01-05T07:18:27.320Z,91.52
2023-01-05T07:19:59.637Z,91.70
2023-01-05T07:21:31.652Z,91.65
2023-01-05T07:23:03.712Z,91.33
2023-01-05T07:24:35.786Z,91.45
2023-01-05T07:26:09.468Z,91.49
2023-01-05T07:27:41.655Z,91.48
2023-01-05T07:29:13.966Z,91.57
2023-01-05T07:30:51.923Z,91.42
2023-01-05T07:32:24.020Z,91.81
2023-01-05T07:33:56.007Z,91.67
2023-01-05T07:35:28.841Z,91.79
2023-01-05T07:37:00.998Z,91.41
2023-01-05T07:38:33.689Z,91.57
2023-01-05T07:40:06.484Z,91.49
2023-01-05T07:41:38.861Z,91.54
2023-01-05T07:43:10.983Z,91.68
2023-01-05T07:44:43.010Z,91.44
2023-01-05T07:46:16.117Z,91.53
2023-01-05T07:47:48.164Z,91.38
2023-01-05T07:49:20.692Z,91.17
2023-01-05T07:50:53.097Z,91.34
2023-01-05T07:52:25.167Z,91.17
2023-01-05T07:53:57.398Z,91.29
2023-01-05T07:55:29.443Z,91.10
2023-01-05T07:57:01.527Z,91.31
2023-01-05T07:58:33.819Z,91.12
2023-01-05T08:00:07.014Z,90.85
2023-01-05T08:01:39.115Z,90.95
2023-01-05T08:03:11.202Z,90.93
2023-01-05T08:04:43.322Z,90.80
2023-01-05T08:06:18.023Z,90.73
2023-01-05T08:07:50.040Z,91.05
2023-01-05T08:09:40.692Z,91.01
2023-01-05T08:11:17.360Z,91.00
2023-01-05T08:13:08.006Z,91.45
2023-01-05T08:14:39.998Z,91.19
2023-01-05T08:16:12.132Z,91.04
2023-01-05T08:17:44.248Z,91.04
2023-01-05T08:19:18.738Z,90.86
2023-01-05T08:20:56.036Z,90.90
2023-01-05T08:22:28.116Z,90.63
2023-01-05T08:24:00.238Z,90.80
2023-01-05T08:25:32.276Z,90.66
2023-01-05T08:27:04.545Z,90.48
2023-01-05T08:28:37.183Z,90.43
2023-01-05T08:30:09.993Z,90.33
2023-01-05T08:31:44.595Z,90.27
2023-01-05T08:33:16.897Z,90.28
2023-01-05T08:34:55.056Z,90.84
2023-01-05T08:36:28.187Z,90.91
2023-01-05T08:38:00.277Z,90.75
2023-01-05T08:39:33.466Z,90.67
2023-01-05T08:41:05.778Z,90.20
2023-01-05T08:42:37.868Z,89.88
2023-01-05T08:44:14.484Z,89.57
2023-01-05T08:45:53.191Z,89.15
2023-01-05T08:47:28.432Z,88.34
2023-01-05T08:49:06.029Z,87.86
2023-01-05T08:50:38.803Z,87.19
2023-01-05T08:52:10.793Z,86.72
2023-01-05T08:53:42.953Z,85.70
2023-01-05T08:55:15.187Z,84.77
2023-01-05T08:56:50.793Z,83.54
2023-01-05T08:58:23.113Z,83.27
2023-01-05T08:59:55.247Z,82.10
2023-01-05T09:01:28.036Z,81.51
2023-01-05T09:03:00.318Z,78.48
2023-01-05T09:04:32.554Z,78.23
2023-01-05T09:06:06.184Z,78.53
2023-01-05T09:07:38.203Z,78.92
2023-01-05T09:09:10.710Z,77.11
2023-01-05T09:10:42.973Z,76.12
2023-01-05T09:12:15.139Z,74.88
2023-01-05T09:13:52.826Z,74.63
2023-01-05T09:15:24.913Z,72.36
2023-01-05T09:17:08.088Z,72.54
2023-01-05T09:18:41.716Z,73.10
2023-01-05T09:20:13.879Z,72.60
2023-01-05T09:21:45.951Z,72.82
2023-01-05T09:23:17.933Z,72.23
2023-01-05T09:24:49.913Z,72.31
2023-01-05T09:26:21.996Z,70.63
2023-01-05T09:27:58.449Z,71.46
2023-01-05T09:29:30.537Z,70.73
2023-01-05T09:31:13.979Z,69.81
2023-01-05T09:32:46.204Z,69.70
2023-01-05T09:34:19.415Z,70.67
2023-01-05T09:35:57.916Z,69.34
2023-01-05T09:37:29.964Z,66.17
2023-01-05T09:39:01.980Z,65.06
2023-01-05T09:40:40.732Z,63.48
2023-01-05T09:42:17.573Z,62.80
2023-01-05T09:44:12.055Z,62.54
2023-01-05T09:45:43.974Z,60.46
2023-01-05T09:47:21.266Z,57.88
2023-01-05T09:48:56.023Z,56.80
2023-01-05T09:50:32.686Z,57.05
2023-01-05T09:52:11.029Z,56.31
2023-01-05T09:53:43.099Z,55.72
2023-01-05T09:55:20.174Z,55.87
2023-01-05T09:57:09.136Z,55.06
2023-01-05T09:58:44.359Z,53.77
2023-01-05T10:00:17.271Z,53.86
2023-01-05T10:01:51.564Z,53.92
2023-01-05T10:04:01.721Z,54.25
2023-01-05T10:05:17.321Z,53.89
2023-01-05T10:06:56.710Z,53.33
2023-01-05T10:08:38.671Z,51.84
2023-01-05T10:10:36.910Z,52.71
2023-01-05T10:12:27.658Z,52.37
2023-01-05T10:14:15.349Z,52.11
2023-01-05T10:15:51.495Z,51.49
2023-01-05T10:17:41.321Z,52.45
2023-01-05T10:19:16.466Z,51.35
2023-01-05T10:21:09.595Z,51.40
2023-01-05T10:22:50.760Z,51.98
2023-01-05T10:24:47.103Z,51.29
2023-01-05T10:26:32.715Z,51.90
2023-01-05T10:28:35.734Z,51.08
2023-01-05T10:30:24.137Z,50.78
2023-01-05T10:32:03.425Z,50.43
2023-01-05T10:33:57.837Z,50.71
2023-01-05T10:36:00.598Z,49.77
2023-01-05T10:37:33.936Z,50.35
2023-01-05T10:39:14.500Z,50.57
2023-01-05T10:41:14.795Z,50.14
2023-01-05T10:45:07.091Z,49.88
2023-01-05T10:46:45.958Z,49.60
2023-01-05T10:48:30.465Z,49.36
2023-01-05T10:50:04.299Z,48.73
2023-01-05T10:51:37.158Z,49.29
2023-01-05T10:53:19.142Z,48.07
2023-01-05T10:55:01.265Z,47.91
2023-01-05T10:56:33.566Z,48.02
2023-01-05T10:58:05.576Z,48.20
2023-01-05T10:59:57.363Z,47.43
2023-01-05T11:01:31.140Z,47.02
2023-01-05T11:03:03.965Z,47.20
2023-01-05T11:04:36.213Z,46.60
2023-01-05T11:06:09.930Z,46.79
2023-01-05T11:07:53.579Z,46.74
2023-01-05T11:09:26.934Z,46.62
2023-01-05T11:11:05.776Z,46.95
2023-01-05T11:12:38.037Z,46.91
2023-01-05T11:14:16.910Z,46.61
2023-01-05T11:15:54.341Z,46.88
2023-01-05T11:17:27.696Z,45.80
2023-01-05T11:19:03.044Z,45.35
2023-01-05T11:20:35.469Z,45.13
2023-01-05T11:22:30.178Z,44.71
2023-01-05T11:24:04.125Z,45.25
2023-01-05T11:25:36.334Z,45.28
2023-01-05T11:27:20.346Z,45.10
2023-01-05T11:29:01.536Z,45.84
2023-01-05T11:30:33.878Z,44.65
2023-01-05T11:32:10.147Z,44.04
2023-01-05T11:33:42.142Z,44.37
2023-01-05T11:35:33.208Z,44.29
2023-01-05T11:37:10.472Z,43.83
2023-01-05T11:38:42.552Z,43.42
2023-01-05T11:40:17.451Z,43.89
2023-01-05T11:41:50.488Z,44.01
2023-01-05T11:43:25.149Z,44.10
2023-01-05T11:45:28.994Z,42.40
2023-01-05T11:47:01.137Z,43.20
2023-01-05T11:48:35.116Z,42.26
2023-01-05T11:50:10.205Z,42.05
2023-01-05T11:51:42.330Z,42.39
2023-01-05T11:53:40.969Z,42.32
2023-01-05T11:55:24.491Z,43.04
2023-01-05T11:57:29.324Z,42.92
2023-01-05T11:59:01.357Z,42.88
2023-01-05T12:01:01.887Z,43.28
2023-01-05T12:02:50.404Z,43.17
2023-01-05T12:04:44.582Z,43.63
2023-01-05T12:06:53.939Z,43.57
2023-01-05T12:09:11.263Z,44.07
2023-01-05T12:10:57.376Z,43.88
2023-01-05T12:14:18.179Z,43.82
2023-01-05T12:16:11.543Z,44.23
2023-01-05T12:17:52.680Z,44.22
2023-01-05T12:19:39.960Z,44.83
2023-01-05T12:21:24.678Z,44.90
2023-01-05T12:23:18.360Z,44.96
2023-01-05T12:25:21.246Z,45.24
2023-01-05T12:27:17.663Z,45.61
2023-01-05T12:35:38.331Z,43.60
2023-01-05T12:37:44.058Z,43.32
2023-01-05T12:39:39.602Z,43.24
2023-01-05T12:41:49.379Z,42.33
2023-01-05T12:43:51.820Z,42.46
2023-01-05T12:45:48.768Z,42.33
2023-01-05T12:47:30.338Z,41.47
2023-01-05T12:49:08.140Z,42.11
2023-01-05T12:50:58.405Z,42.28
2023-01-05T12:52:35.396Z,42.11
2023-01-05T12:54:50.870Z,41.27
2023-01-05T12:56:41.496Z,40.22
2023-01-05T12:58:35.807Z,40.54
2023-01-05T13:00:14.654Z,40.30
2023-01-05T13:02:02.518Z,39.95
2023-01-05T13:03:42.677Z,39.38
2023-01-05T13:05:19.823Z,39.39
2023-01-05T13:06:53.611Z,38.99
2023-01-05T13:08:52.651Z,39.12
2023-01-05T13:10:31.210Z,39.26
2023-01-05T13:12:07.519Z,38.36
2023-01-05T13:13:46.770Z,38.45
2023-01-05T13:15:44.349Z,38.24
2023-01-05T13:17:21.825Z,38.95
2023-01-05T13:19:14.487Z,38.96
2023-01-05T13:20:54.231Z,38.66
2023-01-05T13:22:32.126Z,38.82
2023-01-05T13:24:09.573Z,38.82
2023-01-05T13:26:03.883Z,39.09
2023-01-05T13:27:35.759Z,37.76
2023-01-05T13:29:49.080Z,37.88
2023-01-05T13:31:33.561Z,38.53
2023-01-05T13:33:26.684Z,38.35
2023-01-05T13:35:11.198Z,37.75
2023-01-05T13:37:25.949Z,38.36
2023-01-05T13:39:11.627Z,38.84
2023-01-05T13:41:13.629Z,39.16
2023-01-05T13:45:01.426Z,39.11
2023-01-05T13:46:42.592Z,39.48
2023-01-05T13:49:03.333Z,39.33
2023-01-05T13:51:00.356Z,38.97
2023-01-05T13:53:03.816Z,38.96
2023-01-05T13:54:54.506Z,39.32
2023-01-05T13:56:32.552Z,39.70
2023-01-05T13:58:06.149Z,39.44
2023-01-05T13:59:46.747Z,39.64
2023-01-05T14:01:44.960Z,39.76
2023-01-05T14:03:33.314Z,39.22
2023-01-05T14:05:25.602Z,39.80
2023-01-05T14:07:07.571Z,40.47
2023-01-05T14:08:40.603Z,40.60
2023-01-05T14:10:27.619Z,40.76
2023-01-05T14:12:08.851Z,40.97
2023-01-05T14:14:11.712Z,41.05
2023-01-05T14:15:44.096Z,40.67
2023-01-05T14:17:54.803Z,40.90
2023-01-05T14:19:33.046Z,41.13
2023-01-05T14:21:11.515Z,41.40
2023-01-05T14:22:44.313Z,41.60
2023-01-05T14:24:27.717Z,41.85
2023-01-05T14:26:04.419Z,42.03
2023-01-05T14:28:16.744Z,41.84
2023-01-05T14:29:55.048Z,42.13
2023-01-05T14:31:36.831Z,42.16
2023-01-05T14:33:09.791Z,42.23
2023-01-05T14:36:47.918Z,42.66
2023-01-05T14:38:24.730Z,42.86
2023-01-05T14:40:04.137Z,43.16
2023-01-05T14:41:41.384Z,43.35
2023-01-05T14:43:28.975Z,43.53
2023-01-05T14:45:06.895Z,43.40
2023-01-05T14:46:52.506Z,43.78
2023-01-05T14:48:33.540Z,44.08
2023-01-05T14:50:06.821Z,44.22
2023-01-05T14:51:40.065Z,44.42
2023-01-05T14:53:21.216Z,44.56
2023-01-05T14:55:05.626Z,44.82
2023-01-05T14:56:39.255Z,45.02
2023-01-05T14:58:14.879Z,45.40
2023-01-05T14:59:47.559Z,45.69
2023-01-05T15:01:29.975Z,45.82
2023-01-05T15:05:16.934Z,46.87
2023-01-05T15:07:04.593Z,47.13
2023-01-05T15:09:10.573Z,48.44
2023-01-05T15:12:32.674Z,48.96
2023-01-05T15:14:38.124Z,49.29
2023-01-05T15:16:18.165Z,49.39
2023-01-05T15:18:37.139Z,49.79
2023-01-05T15:20:44.393Z,49.91
2023-01-05T15:22:37.563Z,50.38
2023-01-05T15:24:58.804Z,50.33
2023-01-05T15:26:45.600Z,51.00
2023-01-05T15:28:51.397Z,51.19
2023-01-05T15:31:00.698Z,51.76
2023-01-05T15:32:40.082Z,52.06
2023-01-05T15:34:25.371Z,52.60
2023-01-05T15:36:05.002Z,53.13
2023-01-05T15:37:39.348Z,53.34
2023-01-05T15:41:10.493Z,54.50
2023-01-05T15:42:44.473Z,54.35
2023-01-05T15:44:19.641Z,55.18
2023-01-05T15:45:53.732Z,55.17
2023-01-05T15:47:28.423Z,55.53
2023-01-05T15:49:00.479Z,55.60
2023-01-05T15:50:50.387Z,55.61
2023-01-05T15:52:37.357Z,55.76
2023-01-05T15:54:21.406Z,55.90
2023-01-05T15:55:53.785Z,56.41
2023-01-05T15:57:26.087Z,57.04
2023-01-05T15:58:58.827Z,57.24
2023-01-05T16:00:35.628Z,57.26
2023-01-05T16:02:28.650Z,57.65
2023-01-05T16:04:09.819Z,57.50
2023-01-05T16:05:42.245Z,58.02
2023-01-05T16:07:17.447Z,58.11
2023-01-05T16:10:42.099Z,59.19
2023-01-05T16:12:24.395Z,58.92
2023-01-05T16:14:03.277Z,59.46
2023-01-05T16:15:36.347Z,59.42
2023-01-05T16:17:15.577Z,59.52
2023-01-05T16:18:52.199Z,59.54
2023-01-05T16:20:25.493Z,60.08
2023-01-05T16:22:06.676Z,60.31
2023-01-05T16:23:45.413Z,60.70
2023-01-05T16:25:25.920Z,60.59
2023-01-05T16:26:58.243Z,60.95
2023-01-05T16:28:30.343Z,60.96
2023-01-05T16:30:27.158Z,60.99
2023-01-05T16:31:59.701Z,61.60
2023-01-05T16:33:38.812Z,61.27
2023-01-05T16:35:35.760Z,61.22
2023-01-05T16:37:17.194Z,61.75
2023-01-05T16:40:21.397Z,62.63
2023-01-05T16:42:25.738Z,62.49
2023-01-05T16:44:01.846Z,62.69
2023-01-05T16:45:34.060Z,63.28
2023-01-05T16:47:10.438Z,63.18
2023-01-05T16:48:42.427Z,63.51
2023-01-05T16:50:20.445Z,63.14
2023-01-05T16:51:52.955Z,63.87
2023-01-05T16:53:25.438Z,63.70
2023-01-05T16:55:28.028Z,63.95
2023-01-05T16:57:02.537Z,63.87
2023-01-05T16:58:36.221Z,63.81
2023-01-05T17:00:26.341Z,64.14
2023-01-05T17:01:58.625Z,64.81
2023-01-05T17:03:32.550Z,65.14
2023-01-05T17:05:06.443Z,65.60
2023-01-05T17:06:39.000Z,66.40
2023-01-05T17:08:22.684Z,66.54
2023-01-05T17:09:54.991Z,66.61
2023-01-05T17:11:37.842Z,66.50
2023-01-05T17:13:20.987Z,66.52
2023-01-05T17:14:53.157Z,66.91
2023-01-05T17:16:25.528Z,67.16
2023-01-05T17:17:57.941Z,67.10
2023-01-05T17:19:36.891Z,66.73
2023-01-05T17:21:09.352Z,66.37
2023-01-05T17:22:41.412Z,66.44
2023-01-05T17:24:13.584Z,66.76
2023-01-05T17:25:45.646Z,66.71
2023-01-05T17:27:17.666Z,67.63
2023-01-05T17:28:50.164Z,67.36
2023-01-05T17:30:23.115Z,68.17
2023-01-05T17:31:55.947Z,68.51
2023-01-05T17:33:27.978Z,68.52
2023-01-05T17:35:00.031Z,68.51
2023-01-05T17:36:34.692Z,68.66
2023-01-05T17:38:06.791Z,68.93
2023-01-05T17:39:41.414Z,68.96
2023-01-05T17:41:16.027Z,69.02
2023-01-05T17:42:49.302Z,69.03
2023-01-05T17:44:21.380Z,68.96
2023-01-05T17:45:53.437Z,69.16
2023-01-05T17:47:25.496Z,69.36
2023-01-05T17:48:59.277Z,69.34
2023-01-05T17:52:24.589Z,69.44
2023-01-05T17:53:57.764Z,69.58
2023-01-05T17:55:30.278Z,69.35
2023-01-05T17:57:02.310Z,69.14
2023-01-05T17:58:34.379Z,69.15
2023-01-05T18:00:08.918Z,69.41
2023-01-05T18:01:40.943Z,69.83
2023-01-05T18:03:17.375Z,69.57
2023-01-05T18:04:50.235Z,70.03
2023-01-05T18:06:23.418Z,70.01
2023-01-05T18:07:55.519Z,70.19
2023-01-05T18:09:27.591Z,70.32
2023-01-05T18:11:02.684Z,70.23
2023-01-05T18:12:35.057Z,70.26
2023-01-05T18:15:44.365Z,70.36
2023-01-05T18:17:16.450Z,70.23
2023-01-05T18:18:48.488Z,70.23
2023-01-05T18:20:21.470Z,70.38
2023-01-05T18:21:53.726Z,70.31
2023-01-05T18:23:25.832Z,70.36
2023-01-05T18:24:57.892Z,70.45
2023-01-05T18:26:30.083Z,70.54
2023-01-05T18:28:02.403Z,70.61
2023-01-05T18:29:34.969Z,70.41
2023-01-05T18:31:11.808Z,70.25
2023-01-05T18:32:44.104Z,70.28
2023-01-05T18:34:16.178Z,70.04
2023-01-05T18:35:50.455Z,69.73
2023-01-05T18:38:55.546Z,69.65
2023-01-05T18:40:28.777Z,69.76
2023-01-05T18:42:01.150Z,69.91
2023-01-05T18:43:33.985Z,69.74
2023-01-05T18:45:19.125Z,70.03
2023-01-05T18:46:52.133Z,70.08
2023-01-05T18:48:24.516Z,69.88
2023-01-05T18:49:58.415Z,70.34
2023-01-05T18:51:30.628Z,70.10
2023-01-05T18:53:02.754Z,70.31
2023-01-05T18:54:34.927Z,70.54
2023-01-05T18:56:11.419Z,70.82
2023-01-05T18:57:43.366Z,70.97
2023-01-05T18:59:15.582Z,71.00
2023-01-05T19:00:47.675Z,70.81
2023-01-05T19:02:19.803Z,71.07
2023-01-05T19:03:53.178Z,70.92
2023-01-05T19:05:25.293Z,70.97
2023-01-05T19:06:57.363Z,70.89
2023-01-05T19:08:29.413Z,71.13
2023-01-05T19:10:01.434Z,70.76
2023-01-05T19:11:33.787Z,70.69
2023-01-05T19:13:06.542Z,70.71
2023-01-05T19:14:38.621Z,70.47
2023-01-05T19:16:10.815Z,70.64
2023-01-05T19:17:42.941Z,70.70
2023-01-05T19:19:16.106Z,70.62
2023-01-05T19:20:56.285Z,70.72
2023-01-05T19:22:28.432Z,71.12
2023-01-05T19:24:01.767Z,70.97
2023-01-05T19:25:34.018Z,71.12
2023-01-05T19:27:06.018Z,71.37
2023-01-05T19:28:40.415Z,71.19
2023-01-05T19:30:14.730Z,71.51
2023-01-05T19:31:48.351Z,71.20
2023-01-05T19:33:20.441Z,71.36
2023-01-05T19:34:52.461Z,71.48
2023-01-05T19:36:24.998Z,71.38
2023-01-05T19:37:57.451Z,71.26
2023-01-05T19:39:29.556Z,71.36
2023-01-05T19:41:13.156Z,71.58
2023-01-05T19:42:45.226Z,71.69
2023-01-05T19:44:19.208Z,71.46
2023-01-05T19:45:51.221Z,71.54
2023-01-05T19:47:23.258Z,71.50
2023-01-05T19:48:56.263Z,71.43
2023-01-05T19:50:28.371Z,71.44
2023-01-05T19:52:00.458Z,71.50
2023-01-05T19:53:33.810Z,71.45
2023-01-05T19:55:06.793Z,71.59
2023-01-05T19:56:39.190Z,71.50
2023-01-05T19:58:11.175Z,71.54
2023-01-05T19:59:43.543Z,72.19
2023-01-05T20:01:16.481Z,72.09
2023-01-05T20:02:48.634Z,72.21
2023-01-05T20:04:20.856Z,72.21
2023-01-05T20:05:52.905Z,72.51
2023-01-05T20:07:24.902Z,72.58
2023-01-05T20:09:01.278Z,72.83
2023-01-05T20:10:33.323Z,72.92
2023-01-05T20:12:14.484Z,73.29
2023-01-05T20:13:52.241Z,73.64
2023-01-05T20:15:24.369Z,73.66
2023-01-05T20:17:04.469Z,73.52
2023-01-05T20:18:37.846Z,73.53
2023-01-05T20:20:12.469Z,73.62
2023-01-05T20:21:44.716Z,73.42
2023-01-05T20:23:16.804Z,73.44
2023-01-05T20:24:48.822Z,73.75
2023-01-05T20:26:22.938Z,73.49
2023-01-05T20:27:54.944Z,73.18
2023-01-05T20:29:28.100Z,72.99
2023-01-05T20:31:00.524Z,72.95
2023-01-05T20:32:35.052Z,73.10
2023-01-05T20:34:12.997Z,73.05
2023-01-05T20:35:45.121Z,73.15
2023-01-05T20:37:17.169Z,73.45
2023-01-05T20:38:49.594Z,73.75
2023-01-05T20:40:21.720Z,73.61
2023-01-05T20:41:54.442Z,73.86
2023-01-05T20:43:26.493Z,73.85
2023-01-05T20:44:58.556Z,73.93
2023-01-05T20:46:36.535Z,74.28
2023-01-05T20:48:08.633Z,74.24
2023-01-05T20:49:41.328Z,74.49
2023-01-05T20:51:14.299Z,74.21
2023-01-05T20:52:46.444Z,74.31
2023-01-05T20:54:18.700Z,74.25
2023-01-05T20:55:52.086Z,74.44
2023-01-05T20:57:24.136Z,74.10
2023-01-05T20:58:56.609Z,74.05
2023-01-05T21:00:28.648Z,74.05
2023-01-05T21:02:01.777Z,74.21
2023-01-05T21:03:34.831Z,74.24
2023-01-05T21:05:07.498Z,73.90
2023-01-05T21:06:39.725Z,73.79
2023-01-05T21:08:11.810Z,73.88
2023-01-05T21:09:43.997Z,73.81
2023-01-05T21:11:18.018Z,73.69
2023-01-05T21:12:50.154Z,73.82
2023-01-05T21:14:22.185Z,74.31
2023-01-05T21:16:05.826Z,73.86
2023-01-05T21:17:37.914Z,74.05
2023-01-05T21:19:12.504Z,73.57
2023-01-05T21:20:44.570Z,73.52
2023-01-05T21:22:16.545Z,73.44
2023-01-05T21:23:49.855Z,73.87
2023-01-05T21:25:23.216Z,74.13
2023-01-05T21:26:55.417Z,74.21
2023-01-05T21:28:29.197Z,74.27